sensor_id;sensor_type;location;lat;lon;timestamp;P1;durP1;ratioP1;P2;durP2;ratioP2
29120;SDS011;16191;49.548;8.658;2023-02-04T00:02:05;12.23;;;3.45;;
29120;SDS011;16191;49.548;8.658;2023-02-04T00:04:31;15.88;;;2.85;;
29120;SDS011;16191;49.548;8.658;2023-02-04T00:06:58;6.13;;;2.42;;
29120;SDS011;16191;49.548;8.658;2023-02-04T00:09:25;15.93;;;2.65;;
29120;SDS011;16191;49.548;8.658;2023-02-04T00:11:51;9.73;;;2.53;;
29120;SDS011;16191;49.548;8.658;2023-02-04T00:14:18;14.15;;;3.00;;
29120;SDS011;16191;49.548;8.658;2023-02-04T00:16:45;13.73;;;2.70;;
29120;SDS011;16191;49.548;8.658;2023-02-04T00:19:11;16.15;;;2.75;;
29120;SDS011;16191;49.548;8.658;2023-02-04T00:21:38;12.65;;;2.80;;
29120;SDS011;16191;49.548;8.658;2023-02-04T00:24:04;16.98;;;2.92;;
29120;SDS011;16191;49.548;8.658;2023-02-04T00:26:31;16.90;;;3.10;;
29120;SDS011;16191;49.548;8.658;2023-02-04T00:28:58;17.50;;;3.15;;
29120;SDS011;16191;49.548;8.658;2023-02-04T00:31:24;14.65;;;3.00;;
29120;SDS011;16191;49.548;8.658;2023-02-04T00:33:51;19.40;;;3.22;;
29120;SDS011;16191;49.548;8.658;2023-02-04T00:36:18;14.90;;;2.47;;
29120;SDS011;16191;49.548;8.658;2023-02-04T00:38:45;11.82;;;2.53;;
29120;SDS011;16191;49.548;8.658;2023-02-04T00:41:12;19.95;;;3.08;;
29120;SDS011;16191;49.548;8.658;2023-02-04T00:43:39;14.85;;;3.13;;
29120;SDS011;16191;49.548;8.658;2023-02-04T00:46:05;21.05;;;3.00;;
29120;SDS011;16191;49.548;8.658;2023-02-04T00:48:33;15.00;;;3.58;;
29120;SDS011;16191;49.548;8.658;2023-02-04T00:51:01;14.90;;;3.22;;
29120;SDS011;16191;49.548;8.658;2023-02-04T00:53:28;14.75;;;3.38;;
29120;SDS011;16191;49.548;8.658;2023-02-04T00:55:56;19.75;;;3.13;;
29120;SDS011;16191;49.548;8.658;2023-02-04T00:58:22;18.02;;;3.25;;
29120;SDS011;16191;49.548;8.658;2023-02-04T01:00:49;26.67;;;3.75;;
29120;SDS011;16191;49.548;8.658;2023-02-04T01:03:16;16.08;;;3.67;;
29120;SDS011;16191;49.548;8.658;2023-02-04T01:05:43;19.98;;;3.83;;
29120;SDS011;16191;49.548;8.658;2023-02-04T01:08:09;21.77;;;4.10;;
29120;SDS011;16191;49.548;8.658;2023-02-04T01:10:36;19.48;;;3.55;;
29120;SDS011;16191;49.548;8.658;2023-02-04T01:13:03;13.02;;;3.78;;
29120;SDS011;16191;49.548;8.658;2023-02-04T01:15:33;20.30;;;3.37;;
29120;SDS011;16191;49.548;8.658;2023-02-04T01:18:00;15.82;;;3.22;;
29120;SDS011;16191;49.548;8.658;2023-02-04T01:20:27;21.70;;;3.92;;
29120;SDS011;16191;49.548;8.658;2023-02-04T01:22:54;18.85;;;3.28;;
29120;SDS011;16191;49.548;8.658;2023-02-04T01:25:21;22.25;;;3.25;;
29120;SDS011;16191;49.548;8.658;2023-02-04T01:27:47;18.95;;;4.10;;
29120;SDS011;16191;49.548;8.658;2023-02-04T01:30:14;20.88;;;3.20;;
29120;SDS011;16191;49.548;8.658;2023-02-04T01:32:41;25.17;;;3.58;;
29120;SDS011;16191;49.548;8.658;2023-02-04T01:35:08;18.13;;;3.72;;
29120;SDS011;16191;49.548;8.658;2023-02-04T01:37:35;22.65;;;4.47;;
29120;SDS011;16191;49.548;8.658;2023-02-04T01:40:01;18.48;;;3.60;;
29120;SDS011;16191;49.548;8.658;2023-02-04T01:42:28;17.30;;;3.00;;
29120;SDS011;16191;49.548;8.658;2023-02-04T01:44:55;17.05;;;3.15;;
29120;SDS011;16191;49.548;8.658;2023-02-04T01:47:42;17.38;;;3.70;;
29120;SDS011;16191;49.548;8.658;2023-02-04T01:50:31;14.98;;;3.20;;
29120;SDS011;16191;49.548;8.658;2023-02-04T01:53:23;21.17;;;3.63;;
29120;SDS011;16191;49.548;8.658;2023-02-04T01:56:16;18.23;;;3.38;;
29120;SDS011;16191;49.548;8.658;2023-02-04T01:59:10;14.98;;;3.28;;
29120;SDS011;16191;49.548;8.658;2023-02-04T02:01:59;18.55;;;3.38;;
29120;SDS011;16191;49.548;8.658;2023-02-04T02:04:29;28.05;;;4.40;;
29120;SDS011;16191;49.548;8.658;2023-02-04T02:07:01;21.30;;;4.97;;
29120;SDS011;16191;49.548;8.658;2023-02-04T02:09:30;23.02;;;5.50;;
29120;SDS011;16191;49.548;8.658;2023-02-04T02:11:58;18.48;;;3.78;;
29120;SDS011;16191;49.548;8.658;2023-02-04T02:14:27;15.57;;;3.10;;
29120;SDS011;16191;49.548;8.658;2023-02-04T02:16:53;21.70;;;4.35;;
29120;SDS011;16191;49.548;8.658;2023-02-04T02:19:28;16.50;;;3.30;;
29120;SDS011;16191;49.548;8.658;2023-02-04T02:22:12;25.38;;;3.92;;
29120;SDS011;16191;49.548;8.658;2023-02-04T02:24:40;20.05;;;3.28;;
29120;SDS011;16191;49.548;8.658;2023-02-04T02:27:08;20.35;;;4.10;;
29120;SDS011;16191;49.548;8.658;2023-02-04T02:29:37;11.55;;;2.97;;
29120;SDS011;16191;49.548;8.658;2023-02-04T02:32:06;21.55;;;3.63;;
29120;SDS011;16191;49.548;8.658;2023-02-04T02:34:34;22.10;;;3.38;;
29120;SDS011;16191;49.548;8.658;2023-02-04T02:37:01;21.63;;;3.72;;
29120;SDS011;16191;49.548;8.658;2023-02-04T02:39:29;18.60;;;3.65;;
29120;SDS011;16191;49.548;8.658;2023-02-04T02:41:58;16.33;;;3.40;;
29120;SDS011;16191;49.548;8.658;2023-02-04T02:44:26;19.15;;;3.95;;
29120;SDS011;16191;49.548;8.658;2023-02-04T02:46:53;24.85;;;3.80;;
29120;SDS011;16191;49.548;8.658;2023-02-04T02:49:22;21.00;;;3.20;;
29120;SDS011;16191;49.548;8.658;2023-02-04T02:51:48;13.25;;;3.15;;
29120;SDS011;16191;49.548;8.658;2023-02-04T02:54:23;20.30;;;4.25;;
29120;SDS011;16191;49.548;8.658;2023-02-04T02:56:56;21.13;;;3.70;;
29120;SDS011;16191;49.548;8.658;2023-02-04T02:59:24;26.35;;;3.78;;
29120;SDS011;16191;49.548;8.658;2023-02-04T03:01:56;22.60;;;4.03;;
29120;SDS011;16191;49.548;8.658;2023-02-04T03:04:30;17.60;;;4.15;;
29120;SDS011;16191;49.548;8.658;2023-02-04T03:07:00;20.40;;;3.35;;
29120;SDS011;16191;49.548;8.658;2023-02-04T03:09:27;21.35;;;4.00;;
29120;SDS011;16191;49.548;8.658;2023-02-04T03:11:54;21.08;;;3.63;;
29120;SDS011;16191;49.548;8.658;2023-02-04T03:14:21;26.33;;;4.78;;
29120;SDS011;16191;49.548;8.658;2023-02-04T03:16:51;23.40;;;3.92;;
29120;SDS011;16191;49.548;8.658;2023-02-04T03:19:19;25.48;;;5.05;;
29120;SDS011;16191;49.548;8.658;2023-02-04T03:21:48;29.08;;;4.22;;
29120;SDS011;16191;49.548;8.658;2023-02-04T03:24:16;25.13;;;3.88;;
29120;SDS011;16191;49.548;8.658;2023-02-04T03:26:43;23.20;;;4.25;;
29120;SDS011;16191;49.548;8.658;2023-02-04T03:29:10;23.95;;;4.40;;
29120;SDS011;16191;49.548;8.658;2023-02-04T03:31:37;21.45;;;3.70;;
29120;SDS011;16191;49.548;8.658;2023-02-04T03:34:04;17.35;;;4.72;;
29120;SDS011;16191;49.548;8.658;2023-02-04T03:36:31;26.20;;;4.55;;
29120;SDS011;16191;49.548;8.658;2023-02-04T03:38:58;17.33;;;4.13;;
29120;SDS011;16191;49.548;8.658;2023-02-04T03:41:25;20.88;;;4.22;;
29120;SDS011;16191;49.548;8.658;2023-02-04T03:43:52;22.63;;;4.35;;
29120;SDS011;16191;49.548;8.658;2023-02-04T03:46:19;29.13;;;4.43;;
29120;SDS011;16191;49.548;8.658;2023-02-04T03:48:49;25.38;;;4.43;;
29120;SDS011;16191;49.548;8.658;2023-02-04T03:51:15;22.33;;;4.32;;
29120;SDS011;16191;49.548;8.658;2023-02-04T03:53:42;18.63;;;3.80;;
29120;SDS011;16191;49.548;8.658;2023-02-04T03:56:08;18.88;;;4.00;;
29120;SDS011;16191;49.548;8.658;2023-02-04T03:58:35;30.55;;;5.40;;
29120;SDS011;16191;49.548;8.658;2023-02-04T04:01:02;23.48;;;4.72;;
29120;SDS011;16191;49.548;8.658;2023-02-04T04:03:29;27.48;;;5.20;;
29120;SDS011;16191;49.548;8.658;2023-02-04T04:05:55;26.15;;;4.78;;
29120;SDS011;16191;49.548;8.658;2023-02-04T04:08:22;27.60;;;5.03;;
29120;SDS011;16191;49.548;8.658;2023-02-04T04:10:49;20.80;;;4.30;;
29120;SDS011;16191;49.548;8.658;2023-02-04T04:13:16;23.67;;;3.92;;
29120;SDS011;16191;49.548;8.658;2023-02-04T04:15:43;20.40;;;3.60;;
29120;SDS011;16191;49.548;8.658;2023-02-04T04:18:10;19.73;;;4.30;;
29120;SDS011;16191;49.548;8.658;2023-02-04T04:20:37;24.50;;;5.22;;
29120;SDS011;16191;49.548;8.658;2023-02-04T04:23:03;32.53;;;4.78;;
29120;SDS011;16191;49.548;8.658;2023-02-04T04:25:30;24.08;;;4.78;;
29120;SDS011;16191;49.548;8.658;2023-02-04T04:27:57;27.48;;;4.82;;
29120;SDS011;16191;49.548;8.658;2023-02-04T04:30:24;23.80;;;4.90;;
29120;SDS011;16191;49.548;8.658;2023-02-04T04:32:50;32.05;;;5.60;;
29120;SDS011;16191;49.548;8.658;2023-02-04T04:35:17;20.83;;;4.20;;
29120;SDS011;16191;49.548;8.658;2023-02-04T04:37:44;22.40;;;4.13;;
29120;SDS011;16191;49.548;8.658;2023-02-04T04:40:11;19.08;;;4.50;;
29120;SDS011;16191;49.548;8.658;2023-02-04T04:42:38;21.33;;;3.97;;
29120;SDS011;16191;49.548;8.658;2023-02-04T04:45:09;24.85;;;4.20;;
29120;SDS011;16191;49.548;8.658;2023-02-04T04:47:37;18.00;;;3.63;;
29120;SDS011;16191;49.548;8.658;2023-02-04T04:50:04;18.73;;;3.97;;
29120;SDS011;16191;49.548;8.658;2023-02-04T04:52:31;22.33;;;4.53;;
29120;SDS011;16191;49.548;8.658;2023-02-04T04:54:58;25.75;;;4.65;;
29120;SDS011;16191;49.548;8.658;2023-02-04T04:57:24;22.80;;;5.28;;
29120;SDS011;16191;49.548;8.658;2023-02-04T04:59:51;20.27;;;4.25;;
29120;SDS011;16191;49.548;8.658;2023-02-04T05:02:18;27.15;;;4.32;;
29120;SDS011;16191;49.548;8.658;2023-02-04T05:04:45;19.00;;;3.28;;
29120;SDS011;16191;49.548;8.658;2023-02-04T05:07:12;24.67;;;4.20;;
29120;SDS011;16191;49.548;8.658;2023-02-04T05:09:39;24.08;;;4.88;;
29120;SDS011;16191;49.548;8.658;2023-02-04T05:12:05;20.85;;;3.90;;
29120;SDS011;16191;49.548;8.658;2023-02-04T05:14:32;19.30;;;3.88;;
29120;SDS011;16191;49.548;8.658;2023-02-04T05:16:59;22.02;;;3.83;;
29120;SDS011;16191;49.548;8.658;2023-02-04T05:19:25;30.10;;;4.40;;
29120;SDS011;16191;49.548;8.658;2023-02-04T05:21:52;23.90;;;3.58;;
29120;SDS011;16191;49.548;8.658;2023-02-04T05:24:19;28.35;;;4.43;;
29120;SDS011;16191;49.548;8.658;2023-02-04T05:26:45;27.23;;;4.43;;
29120;SDS011;16191;49.548;8.658;2023-02-04T05:29:12;26.60;;;4.28;;
29120;SDS011;16191;49.548;8.658;2023-02-04T05:31:39;22.88;;;3.67;;
29120;SDS011;16191;49.548;8.658;2023-02-04T05:34:06;24.58;;;4.40;;
29120;SDS011;16191;49.548;8.658;2023-02-04T05:36:32;18.38;;;4.15;;
29120;SDS011;16191;49.548;8.658;2023-02-04T05:38:59;28.23;;;4.03;;
29120;SDS011;16191;49.548;8.658;2023-02-04T05:41:26;33.28;;;5.50;;
29120;SDS011;16191;49.548;8.658;2023-02-04T05:43:53;25.75;;;4.00;;
29120;SDS011;16191;49.548;8.658;2023-02-04T05:46:19;26.85;;;5.15;;
29120;SDS011;16191;49.548;8.658;2023-02-04T05:48:46;21.88;;;3.92;;
29120;SDS011;16191;49.548;8.658;2023-02-04T05:51:13;19.48;;;4.47;;
29120;SDS011;16191;49.548;8.658;2023-02-04T05:53:40;19.48;;;3.53;;
29120;SDS011;16191;49.548;8.658;2023-02-04T05:56:06;24.80;;;4.07;;
29120;SDS011;16191;49.548;8.658;2023-02-04T05:58:35;30.23;;;4.43;;
29120;SDS011;16191;49.548;8.658;2023-02-04T06:01:05;26.35;;;3.55;;
29120;SDS011;16191;49.548;8.658;2023-02-04T06:03:32;19.15;;;3.35;;
29120;SDS011;16191;49.548;8.658;2023-02-04T06:05:59;28.20;;;4.30;;
29120;SDS011;16191;49.548;8.658;2023-02-04T06:08:25;27.88;;;4.43;;
29120;SDS011;16191;49.548;8.658;2023-02-04T06:10:52;22.50;;;3.92;;
29120;SDS011;16191;49.548;8.658;2023-02-04T06:13:18;25.85;;;4.43;;
29120;SDS011;16191;49.548;8.658;2023-02-04T06:15:45;26.20;;;5.18;;
29120;SDS011;16191;49.548;8.658;2023-02-04T06:18:12;32.13;;;5.10;;
29120;SDS011;16191;49.548;8.658;2023-02-04T06:20:39;23.15;;;4.18;;
29120;SDS011;16191;49.548;8.658;2023-02-04T06:23:06;20.80;;;3.95;;
29120;SDS011;16191;49.548;8.658;2023-02-04T06:25:32;22.13;;;4.60;;
29120;SDS011;16191;49.548;8.658;2023-02-04T06:27:59;29.52;;;4.78;;
29120;SDS011;16191;49.548;8.658;2023-02-04T06:30:26;29.48;;;4.50;;
29120;SDS011;16191;49.548;8.658;2023-02-04T06:32:53;31.48;;;4.22;;
29120;SDS011;16191;49.548;8.658;2023-02-04T06:35:20;27.42;;;3.90;;
29120;SDS011;16191;49.548;8.658;2023-02-04T06:37:46;21.55;;;3.75;;
29120;SDS011;16191;49.548;8.658;2023-02-04T06:40:14;28.75;;;4.78;;
29120;SDS011;16191;49.548;8.658;2023-02-04T06:42:41;23.35;;;3.80;;
29120;SDS011;16191;49.548;8.658;2023-02-04T06:45:07;27.58;;;5.18;;
29120;SDS011;16191;49.548;8.658;2023-02-04T06:47:34;33.13;;;6.35;;
29120;SDS011;16191;49.548;8.658;2023-02-04T06:50:01;25.00;;;5.15;;
29120;SDS011;16191;49.548;8.658;2023-02-04T06:52:28;27.75;;;4.50;;
29120;SDS011;16191;49.548;8.658;2023-02-04T06:54:54;22.05;;;4.60;;
29120;SDS011;16191;49.548;8.658;2023-02-04T06:57:21;29.75;;;5.35;;
29120;SDS011;16191;49.548;8.658;2023-02-04T06:59:47;36.17;;;5.90;;
29120;SDS011;16191;49.548;8.658;2023-02-04T07:02:14;26.00;;;4.57;;
29120;SDS011;16191;49.548;8.658;2023-02-04T07:04:44;30.75;;;4.50;;
29120;SDS011;16191;49.548;8.658;2023-02-04T07:07:13;27.98;;;4.50;;
29120;SDS011;16191;49.548;8.658;2023-02-04T07:09:39;34.50;;;5.45;;
29120;SDS011;16191;49.548;8.658;2023-02-04T07:12:06;27.77;;;5.90;;
29120;SDS011;16191;49.548;8.658;2023-02-04T07:14:33;25.42;;;5.32;;
29120;SDS011;16191;49.548;8.658;2023-02-04T07:16:59;25.70;;;5.55;;
29120;SDS011;16191;49.548;8.658;2023-02-04T07:19:26;26.75;;;5.43;;
29120;SDS011;16191;49.548;8.658;2023-02-04T07:21:53;20.52;;;5.13;;
29120;SDS011;16191;49.548;8.658;2023-02-04T07:24:22;24.92;;;5.18;;
29120;SDS011;16191;49.548;8.658;2023-02-04T07:26:49;32.10;;;5.53;;
29120;SDS011;16191;49.548;8.658;2023-02-04T07:29:16;28.63;;;5.32;;
29120;SDS011;16191;49.548;8.658;2023-02-04T07:31:51;31.00;;;5.70;;
29120;SDS011;16191;49.548;8.658;2023-02-04T07:34:18;25.95;;;5.15;;
29120;SDS011;16191;49.548;8.658;2023-02-04T07:36:45;20.38;;;4.38;;
29120;SDS011;16191;49.548;8.658;2023-02-04T07:39:12;25.25;;;5.20;;
29120;SDS011;16191;49.548;8.658;2023-02-04T07:41:39;31.55;;;4.68;;
29120;SDS011;16191;49.548;8.658;2023-02-04T07:44:06;32.90;;;4.47;;
29120;SDS011;16191;49.548;8.658;2023-02-04T07:46:32;25.40;;;4.78;;
29120;SDS011;16191;49.548;8.658;2023-02-04T07:48:59;22.05;;;4.53;;
29120;SDS011;16191;49.548;8.658;2023-02-04T07:51:26;17.90;;;4.50;;
29120;SDS011;16191;49.548;8.658;2023-02-04T07:53:54;27.02;;;5.28;;
29120;SDS011;16191;49.548;8.658;2023-02-04T07:56:22;25.73;;;4.55;;
29120;SDS011;16191;49.548;8.658;2023-02-04T07:58:49;30.35;;;4.50;;
29120;SDS011;16191;49.548;8.658;2023-02-04T08:01:15;26.63;;;5.03;;
29120;SDS011;16191;49.548;8.658;2023-02-04T08:03:42;21.45;;;4.90;;
29120;SDS011;16191;49.548;8.658;2023-02-04T08:06:09;25.30;;;5.13;;
29120;SDS011;16191;49.548;8.658;2023-02-04T08:08:36;32.78;;;5.70;;
29120;SDS011;16191;49.548;8.658;2023-02-04T08:11:03;28.45;;;6.30;;
29120;SDS011;16191;49.548;8.658;2023-02-04T08:13:29;28.75;;;5.25;;
29120;SDS011;16191;49.548;8.658;2023-02-04T08:15:56;27.27;;;5.38;;
29120;SDS011;16191;49.548;8.658;2023-02-04T08:18:22;23.17;;;5.63;;
29120;SDS011;16191;49.548;8.658;2023-02-04T08:20:50;26.85;;;5.40;;
29120;SDS011;16191;49.548;8.658;2023-02-04T08:23:17;27.67;;;5.10;;
29120;SDS011;16191;49.548;8.658;2023-02-04T08:25:44;31.75;;;6.25;;
29120;SDS011;16191;49.548;8.658;2023-02-04T08:28:11;27.83;;;5.43;;
29120;SDS011;16191;49.548;8.658;2023-02-04T08:30:37;36.15;;;6.97;;
29120;SDS011;16191;49.548;8.658;2023-02-04T08:33:04;28.88;;;5.25;;
29120;SDS011;16191;49.548;8.658;2023-02-04T08:35:31;24.50;;;5.20;;
29120;SDS011;16191;49.548;8.658;2023-02-04T08:37:58;30.95;;;5.07;;
29120;SDS011;16191;49.548;8.658;2023-02-04T08:40:24;31.08;;;5.93;;
29120;SDS011;16191;49.548;8.658;2023-02-04T08:42:51;29.65;;;5.72;;
29120;SDS011;16191;49.548;8.658;2023-02-04T08:45:18;28.17;;;6.18;;
29120;SDS011;16191;49.548;8.658;2023-02-04T08:47:44;21.77;;;6.07;;
29120;SDS011;16191;49.548;8.658;2023-02-04T08:50:11;29.50;;;5.57;;
29120;SDS011;16191;49.548;8.658;2023-02-04T08:52:38;25.65;;;5.60;;
29120;SDS011;16191;49.548;8.658;2023-02-04T08:55:05;29.02;;;5.38;;
29120;SDS011;16191;49.548;8.658;2023-02-04T08:57:32;27.13;;;5.40;;
29120;SDS011;16191;49.548;8.658;2023-02-04T09:00:00;36.70;;;6.10;;
29120;SDS011;16191;49.548;8.658;2023-02-04T09:02:27;28.00;;;5.63;;
29120;SDS011;16191;49.548;8.658;2023-02-04T09:04:54;32.42;;;6.63;;
29120;SDS011;16191;49.548;8.658;2023-02-04T09:07:21;24.05;;;5.35;;
29120;SDS011;16191;49.548;8.658;2023-02-04T09:09:48;34.97;;;5.75;;
29120;SDS011;16191;49.548;8.658;2023-02-04T09:12:14;23.27;;;4.63;;
29120;SDS011;16191;49.548;8.658;2023-02-04T09:14:41;32.30;;;5.72;;
29120;SDS011;16191;49.548;8.658;2023-02-04T09:17:08;38.33;;;5.60;;
29120;SDS011;16191;49.548;8.658;2023-02-04T09:19:35;28.27;;;5.00;;
29120;SDS011;16191;49.548;8.658;2023-02-04T09:22:01;30.77;;;4.72;;
29120;SDS011;16191;49.548;8.658;2023-02-04T09:24:28;30.33;;;6.05;;
29120;SDS011;16191;49.548;8.658;2023-02-04T09:26:55;31.10;;;5.93;;
29120;SDS011;16191;49.548;8.658;2023-02-04T09:29:22;33.65;;;6.72;;
29120;SDS011;16191;49.548;8.658;2023-02-04T09:31:49;33.53;;;6.35;;
29120;SDS011;16191;49.548;8.658;2023-02-04T09:34:16;33.67;;;5.95;;
29120;SDS011;16191;49.548;8.658;2023-02-04T09:36:42;31.15;;;6.28;;
29120;SDS011;16191;49.548;8.658;2023-02-04T09:39:09;24.48;;;4.97;;
29120;SDS011;16191;49.548;8.658;2023-02-04T09:41:39;28.92;;;5.35;;
29120;SDS011;16191;49.548;8.658;2023-02-04T09:44:09;31.77;;;5.70;;
29120;SDS011;16191;49.548;8.658;2023-02-04T09:46:43;31.88;;;5.85;;
29120;SDS011;16191;49.548;8.658;2023-02-04T09:49:15;33.42;;;5.38;;
29120;SDS011;16191;49.548;8.658;2023-02-04T09:51:42;34.47;;;5.65;;
29120;SDS011;16191;49.548;8.658;2023-02-04T09:54:12;26.70;;;6.05;;
29120;SDS011;16191;49.548;8.658;2023-02-04T09:56:40;26.70;;;5.22;;
29120;SDS011;16191;49.548;8.658;2023-02-04T09:59:11;25.95;;;5.07;;
29120;SDS011;16191;49.548;8.658;2023-02-04T10:01:41;26.60;;;5.32;;
29120;SDS011;16191;49.548;8.658;2023-02-04T10:04:12;22.45;;;4.82;;
29120;SDS011;16191;49.548;8.658;2023-02-04T10:06:40;26.42;;;4.97;;
29120;SDS011;16191;49.548;8.658;2023-02-04T10:09:10;23.15;;;4.85;;
29120;SDS011;16191;49.548;8.658;2023-02-04T10:11:37;52.72;;;6.20;;
29120;SDS011;16191;49.548;8.658;2023-02-04T10:14:07;28.33;;;4.68;;
29120;SDS011;16191;49.548;8.658;2023-02-04T10:16:40;29.40;;;6.53;;
29120;SDS011;16191;49.548;8.658;2023-02-04T10:19:12;25.48;;;4.32;;
29120;SDS011;16191;49.548;8.658;2023-02-04T10:21:42;22.35;;;4.47;;
29120;SDS011;16191;49.548;8.658;2023-02-04T10:24:18;18.65;;;3.60;;
29120;SDS011;16191;49.548;8.658;2023-02-04T10:26:46;21.33;;;4.43;;
29120;SDS011;16191;49.548;8.658;2023-02-04T10:29:17;19.55;;;3.97;;
29120;SDS011;16191;49.548;8.658;2023-02-04T10:31:48;30.17;;;4.65;;
29120;SDS011;16191;49.548;8.658;2023-02-04T10:34:22;22.25;;;4.25;;
29120;SDS011;16191;49.548;8.658;2023-02-04T10:36:57;26.70;;;4.00;;
29120;SDS011;16191;49.548;8.658;2023-02-04T10:39:28;19.52;;;4.00;;
29120;SDS011;16191;49.548;8.658;2023-02-04T10:41:56;17.77;;;3.42;;
29120;SDS011;16191;49.548;8.658;2023-02-04T10:46:58;17.65;;;4.05;;
29120;SDS011;16191;49.548;8.658;2023-02-04T10:49:25;25.17;;;4.00;;
29120;SDS011;16191;49.548;8.658;2023-02-04T10:51:52;19.40;;;3.75;;
29120;SDS011;16191;49.548;8.658;2023-02-04T10:54:20;25.40;;;5.03;;
29120;SDS011;16191;49.548;8.658;2023-02-04T10:57:06;29.98;;;5.32;;
29120;SDS011;16191;49.548;8.658;2023-02-04T10:59:41;23.10;;;4.00;;
29120;SDS011;16191;49.548;8.658;2023-02-04T11:05:17;22.88;;;4.05;;
29120;SDS011;16191;49.548;8.658;2023-02-04T11:07:47;20.38;;;3.63;;
29120;SDS011;16191;49.548;8.658;2023-02-04T11:10:19;21.77;;;3.40;;
29120;SDS011;16191;49.548;8.658;2023-02-04T11:20:45;24.92;;;3.83;;
29120;SDS011;16191;49.548;8.658;2023-02-04T11:25:42;20.27;;;4.15;;
29120;SDS011;16191;49.548;8.658;2023-02-04T11:28:12;18.15;;;3.28;;
29120;SDS011;16191;49.548;8.658;2023-02-04T11:31:00;19.00;;;3.60;;
29120;SDS011;16191;49.548;8.658;2023-02-04T11:33:39;17.75;;;3.33;;
29120;SDS011;16191;49.548;8.658;2023-02-04T11:36:08;17.55;;;3.42;;
29120;SDS011;16191;49.548;8.658;2023-02-04T11:38:37;18.75;;;3.38;;
29120;SDS011;16191;49.548;8.658;2023-02-04T11:41:05;20.25;;;3.28;;
29120;SDS011;16191;49.548;8.658;2023-02-04T11:43:32;20.77;;;3.33;;
29120;SDS011;16191;49.548;8.658;2023-02-04T11:46:11;21.42;;;3.80;;
29120;SDS011;16191;49.548;8.658;2023-02-04T11:48:42;16.77;;;3.38;;
29120;SDS011;16191;49.548;8.658;2023-02-04T11:51:15;21.10;;;3.15;;
29120;SDS011;16191;49.548;8.658;2023-02-04T11:53:43;15.98;;;3.78;;
29120;SDS011;16191;49.548;8.658;2023-02-04T11:56:20;17.10;;;3.35;;
29120;SDS011;16191;49.548;8.658;2023-02-04T11:58:49;10.23;;;3.13;;
29120;SDS011;16191;49.548;8.658;2023-02-04T12:01:17;13.50;;;3.35;;
29120;SDS011;16191;49.548;8.658;2023-02-04T12:03:47;15.82;;;3.03;;
29120;SDS011;16191;49.548;8.658;2023-02-04T12:06:23;14.85;;;3.13;;
29120;SDS011;16191;49.548;8.658;2023-02-04T12:08:50;14.25;;;2.35;;
29120;SDS011;16191;49.548;8.658;2023-02-04T12:11:25;16.33;;;3.58;;
29120;SDS011;16191;49.548;8.658;2023-02-04T12:14:05;15.23;;;3.40;;
29120;SDS011;16191;49.548;8.658;2023-02-04T12:16:40;14.02;;;2.78;;
29120;SDS011;16191;49.548;8.658;2023-02-04T12:19:10;13.18;;;2.97;;
29120;SDS011;16191;49.548;8.658;2023-02-04T12:21:38;20.27;;;3.30;;
29120;SDS011;16191;49.548;8.658;2023-02-04T12:24:05;15.15;;;3.58;;
29120;SDS011;16191;49.548;8.658;2023-02-04T12:26:32;13.07;;;3.13;;
29120;SDS011;16191;49.548;8.658;2023-02-04T12:28:58;15.25;;;2.80;;
29120;SDS011;16191;49.548;8.658;2023-02-04T12:31:28;13.43;;;2.80;;
29120;SDS011;16191;49.548;8.658;2023-02-04T12:33:56;17.20;;;3.50;;
29120;SDS011;16191;49.548;8.658;2023-02-04T12:36:23;16.30;;;3.10;;
29120;SDS011;16191;49.548;8.658;2023-02-04T12:38:53;15.87;;;2.90;;
29120;SDS011;16191;49.548;8.658;2023-02-04T12:41:19;14.77;;;2.75;;
29120;SDS011;16191;49.548;8.658;2023-02-04T12:43:46;18.60;;;3.53;;
29120;SDS011;16191;49.548;8.658;2023-02-04T12:46:15;17.40;;;3.25;;
29120;SDS011;16191;49.548;8.658;2023-02-04T12:48:43;11.43;;;2.92;;
29120;SDS011;16191;49.548;8.658;2023-02-04T12:51:09;18.48;;;3.03;;
29120;SDS011;16191;49.548;8.658;2023-02-04T12:53:36;16.98;;;3.33;;
29120;SDS011;16191;49.548;8.658;2023-02-04T12:56:03;14.90;;;3.17;;
29120;SDS011;16191;49.548;8.658;2023-02-04T12:58:30;23.58;;;3.67;;
29120;SDS011;16191;49.548;8.658;2023-02-04T13:00:56;14.15;;;3.05;;
29120;SDS011;16191;49.548;8.658;2023-02-04T13:03:23;11.40;;;2.60;;
29120;SDS011;16191;49.548;8.658;2023-02-04T13:05:50;13.95;;;3.30;;
29120;SDS011;16191;49.548;8.658;2023-02-04T13:08:17;17.45;;;2.80;;
29120;SDS011;16191;49.548;8.658;2023-02-04T13:10:43;16.13;;;3.53;;
29120;SDS011;16191;49.548;8.658;2023-02-04T13:13:10;15.95;;;3.30;;
29120;SDS011;16191;49.548;8.658;2023-02-04T13:15:37;13.95;;;3.08;;
29120;SDS011;16191;49.548;8.658;2023-02-04T13:18:03;8.98;;;2.40;;
29120;SDS011;16191;49.548;8.658;2023-02-04T13:20:30;15.27;;;3.20;;
29120;SDS011;16191;49.548;8.658;2023-02-04T13:22:57;9.20;;;2.33;;
29120;SDS011;16191;49.548;8.658;2023-02-04T13:25:23;14.55;;;2.80;;
29120;SDS011;16191;49.548;8.658;2023-02-04T13:27:50;9.73;;;2.53;;
29120;SDS011;16191;49.548;8.658;2023-02-04T13:30:17;13.43;;;2.70;;
29120;SDS011;16191;49.548;8.658;2023-02-04T13:32:44;10.80;;;2.70;;
29120;SDS011;16191;49.548;8.658;2023-02-04T13:35:11;14.68;;;3.67;;
29120;SDS011;16191;49.548;8.658;2023-02-04T13:37:38;11.32;;;2.85;;
29120;SDS011;16191;49.548;8.658;2023-02-04T13:40:05;12.82;;;3.25;;
29120;SDS011;16191;49.548;8.658;2023-02-04T13:42:33;11.80;;;2.78;;
29120;SDS011;16191;49.548;8.658;2023-02-04T13:45:04;13.98;;;3.03;;
29120;SDS011;16191;49.548;8.658;2023-02-04T13:47:33;15.35;;;3.28;;
29120;SDS011;16191;49.548;8.658;2023-02-04T13:50:00;13.68;;;3.47;;
29120;SDS011;16191;49.548;8.658;2023-02-04T13:52:27;10.10;;;2.78;;
29120;SDS011;16191;49.548;8.658;2023-02-04T13:54:53;12.02;;;2.88;;
29120;SDS011;16191;49.548;8.658;2023-02-04T13:57:20;16.52;;;3.03;;
29120;SDS011;16191;49.548;8.658;2023-02-04T13:59:48;12.48;;;2.33;;
29120;SDS011;16191;49.548;8.658;2023-02-04T14:02:15;12.38;;;3.03;;
29120;SDS011;16191;49.548;8.658;2023-02-04T14:04:42;9.13;;;2.47;;
29120;SDS011;16191;49.548;8.658;2023-02-04T14:07:09;13.02;;;3.75;;
29120;SDS011;16191;49.548;8.658;2023-02-04T14:09:35;12.30;;;3.25;;
29120;SDS011;16191;49.548;8.658;2023-02-04T14:12:02;14.65;;;2.47;;
29120;SDS011;16191;49.548;8.658;2023-02-04T14:14:29;17.27;;;3.30;;
29120;SDS011;16191;49.548;8.658;2023-02-04T14:16:55;11.60;;;2.70;;
29120;SDS011;16191;49.548;8.658;2023-02-04T14:19:22;14.23;;;3.05;;
29120;SDS011;16191;49.548;8.658;2023-02-04T14:21:53;15.95;;;3.25;;
29120;SDS011;16191;49.548;8.658;2023-02-04T14:24:20;14.50;;;3.03;;
29120;SDS011;16191;49.548;8.658;2023-02-04T14:26:46;17.77;;;3.58;;
29120;SDS011;16191;49.548;8.658;2023-02-04T14:29:13;14.13;;;2.78;;
29120;SDS011;16191;49.548;8.658;2023-02-04T14:31:40;14.65;;;3.17;;
29120;SDS011;16191;49.548;8.658;2023-02-04T14:34:07;10.63;;;2.72;;
29120;SDS011;16191;49.548;8.658;2023-02-04T14:36:34;10.98;;;2.58;;
29120;SDS011;16191;49.548;8.658;2023-02-04T14:39:01;17.05;;;3.22;;
29120;SDS011;16191;49.548;8.658;2023-02-04T14:41:28;11.80;;;2.63;;
29120;SDS011;16191;49.548;8.658;2023-02-04T14:43:56;17.52;;;3.00;;
29120;SDS011;16191;49.548;8.658;2023-02-04T14:46:23;11.55;;;2.97;;
29120;SDS011;16191;49.548;8.658;2023-02-04T14:48:50;12.98;;;3.13;;
29120;SDS011;16191;49.548;8.658;2023-02-04T14:51:17;11.45;;;2.85;;
29120;SDS011;16191;49.548;8.658;2023-02-04T14:53:44;13.73;;;3.13;;
29120;SDS011;16191;49.548;8.658;2023-02-04T14:56:14;15.07;;;2.53;;
29120;SDS011;16191;49.548;8.658;2023-02-04T14:58:41;13.65;;;3.38;;